Time;durP1;ratioP1;P1;durP2;ratioP2;P2;SDS_P1;SDS_P2;PMS_P1;PMS_P2;Temp;Humidity;BMP_temperature;BMP_pressure;BME280_temperature;BME280_humidity;BME280_pressure;Samples;Min_cycle;Max_cycle;Signal;HPM_P1;HPM_P2
2024/02/25 08:11:09;;;;;;;;;20.50;20.00;;;;;;;;5104869;27;13485;-67
2024/02/25 08:13:34;;;;;;;;;20.00;20.00;;;;;;;;5108314;28;11506;-71
2024/02/25 08:15:59;;;;;;;;;20.50;16.75;;;;;;;;5108544;28;8812;-69
2024/02/25 08:18:24;;;;;;;;;17.50;17.25;;;;;;;;5108242;28;9597;-69
2024/02/25 08:20:50;;;;;;;;;19.00;18.00;;;;;;;;5108236;28;8788;-67
2024/02/25 08:23:15;;;;;;;;;20.00;19.25;;;;;;;;5107111;28;8834;-68
2024/02/25 08:25:41;;;;;;;;;16.25;15.50;;;;;;;;5106122;28;8827;-67
2024/02/25 08:28:06;;;;;;;;;17.50;16.00;;;;;;;;5108108;28;11591;-67
2024/02/25 08:30:31;;;;;;;;;17.00;16.00;;;;;;;;5096709;28;10052;-67
2024/02/25 08:32:57;;;;;;;;;19.50;19.25;;;;;;;;5086517;28;9937;-67
2024/02/25 08:35:22;;;;;;;;;21.75;20.00;;;;;;;;5084326;28;8853;-67
2024/02/25 08:37:47;;;;;;;;;22.75;20.50;;;;;;;;5087333;28;9510;-68
2024/02/25 08:40:13;;;;;;;;;19.25;19.25;;;;;;;;5067036;28;9535;-67
2024/02/25 08:42:38;;;;;;;;;21.50;20.25;;;;;;;;5066899;28;8821;-69
2024/02/25 08:45:04;;;;;;;;;19.75;19.00;;;;;;;;5065891;28;8817;-68
2024/02/25 08:47:29;;;;;;;;;21.50;21.50;;;;;;;;5057852;28;9007;-70
2024/02/25 08:49:54;;;;;;;;;16.00;14.75;;;;;;;;5054427;28;9947;-66
2024/02/25 08:52:20;;;;;;;;;16.75;16.75;;;;;;;;5066785;28;8821;-67
2024/02/25 08:54:45;;;;;;;;;17.00;16.50;;;;;;;;5064879;28;8816;-66
2024/02/25 08:57:12;;;;;;;;;15.25;13.75;;;;;;;;5066449;28;8793;-66
2024/02/25 08:59:37;;;;;;;;;13.00;13.00;;;;;;;;5068078;28;9853;-66
2024/02/25 09:02:04;;;;;;;;;18.50;16.00;;;;;;;;5066721;28;11450;-66
2024/02/25 09:04:30;;;;;;;;;15.00;15.00;;;;;;;;5062235;28;11060;-66
2024/02/25 09:06:56;;;;;;;;;15.75;14.50;;;;;;;;5066448;28;11447;-65
2024/02/25 09:09:21;;;;;;;;;15.75;14.00;;;;;;;;5066516;28;8819;-65
2024/02/25 09:11:46;;;;;;;;;18.25;14.00;;;;;;;;5066439;28;12282;-65
2024/02/25 09:14:12;;;;;;;;;13.75;12.50;;;;;;;;5066447;28;8921;-65
2024/02/25 09:16:38;;;;;;;;;19.00;15.00;;;;;;;;5064005;28;8806;-65
2024/02/25 09:19:03;;;;;;;;;9.75;9.75;;;;;;;;5066250;28;8802;-65
2024/02/25 09:21:30;;;;;;;;;17.25;14.75;;;;;;;;5058742;28;8898;-66
2024/02/25 09:23:55;;;;;;;;;15.75;14.00;;;;;;;;5053105;28;8795;-66
2024/02/25 09:26:22;;;;;;;;;15.00;13.25;;;;;;;;5050701;28;11471;-65
2024/02/25 09:28:47;;;;;;;;;13.00;11.50;;;;;;;;5053049;28;8783;-65
2024/02/25 09:31:16;;;;;;;;;15.75;14.00;;;;;;;;5053159;28;10603;-65
2024/02/25 09:33:42;;;;;;;;;14.00;14.00;;;;;;;;5052829;28;8859;-66
2024/02/25 09:36:07;;;;;;;;;11.50;11.50;;;;;;;;5052981;28;9973;-66
2024/02/25 09:38:32;;;;;;;;;15.50;15.50;;;;;;;;5050395;28;8799;-65
2024/02/25 09:41:01;;;;;;;;;15.75;14.50;;;;;;;;5039982;28;8809;-66
2024/02/25 09:43:27;;;;;;;;;14.50;13.00;;;;;;;;5031311;28;8801;-66
2024/02/25 09:45:56;;;;;;;;;12.50;11.25;;;;;;;;5034621;28;10246;-66
2024/02/25 09:48:21;;;;;;;;;9.00;7.33;;;;;;;;5052226;28;9866;-65
2024/02/25 09:50:50;;;;;;;;;8.00;7.00;;;;;;;;5052681;28;9201;-65
2024/02/25 09:53:15;;;;;;;;;10.75;10.75;;;;;;;;5049136;28;8811;-66
2024/02/25 09:55:43;;;;;;;;;10.00;10.00;;;;;;;;5048850;28;8842;-65
2024/02/25 09:58:08;;;;;;;;;9.75;9.75;;;;;;;;5051969;28;8806;-66
2024/02/25 10:00:33;;;;;;;;;12.00;11.00;;;;;;;;5052371;28;8809;-67
2024/02/25 10:02:59;;;;;;;;;14.67;13.67;;;;;;;;5052294;28;8795;-66
2024/02/25 10:05:24;;;;;;;;;30.00;29.67;;;;;;;;5051234;28;8771;-64
2024/02/25 10:08:03;;;;;;;;;16.67;16.67;;;;;;;;5051291;28;8841;-67
2024/02/25 10:10:30;;;;;;;;;13.25;13.25;;;;;;;;5052136;28;8853;-66
2024/02/25 10:12:55;;;;;;;;;7.20;6.40;;;;;;;;5052185;28;8901;-68
2024/02/25 10:15:21;;;;;;;;;11.75;11.75;;;;;;;;5051406;28;8917;-65
2024/02/25 10:17:46;;;;;;;;;11.50;11.50;;;;;;;;5050761;28;8833;-69
2024/02/25 10:20:11;;;;;;;;;8.75;7.00;;;;;;;;5050797;28;8802;-65
2024/02/25 10:22:37;;;;;;;;;7.25;7.25;;;;;;;;5050458;28;8811;-67
2024/02/25 10:25:07;;;;;;;;;7.00;7.00;;;;;;;;5050325;28;8805;-66
2024/02/25 10:27:32;;;;;;;;;6.00;5.40;;;;;;;;5048374;28;9003;-72
2024/02/25 10:29:59;;;;;;;;;6.00;6.00;;;;;;;;5050359;28;8969;-68
2024/02/25 10:32:25;;;;;;;;;9.40;7.40;;;;;;;;5049721;28;8786;-68
2024/02/25 10:34:52;;;;;;;;;2.80;2.80;;;;;;;;5051099;28;8822;-69
2024/02/25 10:37:18;;;;;;;;;4.20;4.20;;;;;;;;5049827;28;8814;-66
2024/02/25 10:39:45;;;;;;;;;4.00;3.80;;;;;;;;5051413;28;8830;-66
2024/02/25 10:42:13;;;;;;;;;3.00;3.00;;;;;;;;5050603;28;9544;-64
2024/02/25 10:44:38;;;;;;;;;1.00;1.00;;;;;;;;5051956;28;8865;-66
2024/02/25 10:47:07;;;;;;;;;1.25;1.25;;;;;;;;5048589;28;8823;-67
2024/02/25 10:49:32;;;;;;;;;2.00;2.00;;;;;;;;5051076;28;8934;-65
2024/02/25 10:51:59;;;;;;;;;1.50;1.50;;;;;;;;5045024;28;8917;-66
2024/02/25 10:54:24;;;;;;;;;5.80;4.20;;;;;;;;5051136;28;8779;-65
2024/02/25 10:56:50;;;;;;;;;5.25;5.25;;;;;;;;5049265;28;8933;-65
2024/02/25 10:59:17;;;;;;;;;1.50;1.50;;;;;;;;5050788;28;8848;-66
2024/02/25 11:01:43;;;;;;;;;7.20;6.60;;;;;;;;5051057;28;8883;-66
2024/02/25 11:04:09;;;;;;;;;7.00;7.00;;;;;;;;5051131;28;8791;-66
2024/02/25 11:06:39;;;;;;;;;8.00;8.00;;;;;;;;5049244;28;8795;-66
2024/02/25 11:09:12;;;;;;;;;3.00;3.00;;;;;;;;5050831;28;9563;-66
2024/02/25 11:11:37;;;;;;;;;2.80;2.80;;;;;;;;5051438;28;9493;-67
2024/02/25 11:14:05;;;;;;;;;5.80;5.80;;;;;;;;5051356;28;8853;-66
2024/02/25 11:16:34;;;;;;;;;5.00;5.00;;;;;;;;5049248;28;8840;-66
2024/02/25 11:19:01;;;;;;;;;8.00;6.75;;;;;;;;5050578;28;8790;-66
2024/02/25 11:21:26;;;;;;;;;6.25;6.25;;;;;;;;5049696;28;8850;-66
2024/02/25 11:23:52;;;;;;;;;6.33;6.33;;;;;;;;5051155;28;8791;-64
2024/02/25 11:26:49;;;;;;;;;9.00;9.00;;;;;;;;5046637;28;8803;-66
2024/02/25 11:29:21;;;;;;;;;5.50;5.50;;;;;;;;5008387;28;8983;-67
2024/02/25 11:32:00;;;;;;;;;6.00;6.00;;;;;;;;5008905;28;8793;-66
2024/02/25 11:34:26;;;;;;;;;11.25;8.00;;;;;;;;5008616;28;8805;-64
2024/02/25 11:36:53;;;;;;;;;5.00;5.00;;;;;;;;5005598;28;8821;-66
2024/02/25 11:39:20;;;;;;;;;6.00;4.00;;;;;;;;5005959;28;9590;-67
2024/02/25 11:41:47;;;;;;;;;4.75;4.75;;;;;;;;4989347;28;9595;-66
2024/02/25 11:44:13;;;;;;;;;5.00;5.00;;;;;;;;5008167;28;8986;-67
2024/02/25 11:46:38;;;;;;;;;6.50;6.50;;;;;;;;5006289;28;10077;-66
2024/02/25 11:49:03;;;;;;;;;8.75;8.25;;;;;;;;5007657;28;9511;-66
2024/02/25 11:51:28;;;;;;;;;7.00;6.25;;;;;;;;4991603;28;9624;-66
2024/02/25 11:53:54;;;;;;;;;6.00;5.00;;;;;;;;4991934;28;8818;-66
2024/02/25 11:56:19;;;;;;;;;3.75;3.00;;;;;;;;5006305;28;9706;-67
2024/02/25 11:58:44;;;;;;;;;3.00;2.00;;;;;;;;5007893;28;8817;-70
2024/02/25 12:01:10;;;;;;;;;4.00;3.25;;;;;;;;5008133;28;8927;-67
2024/02/25 12:03:39;;;;;;;;;5.50;4.00;;;;;;;;4991606;28;8931;-68
2024/02/25 12:06:04;;;;;;;;;3.00;3.00;;;;;;;;5048254;28;9641;-66
2024/02/25 12:08:30;;;;;;;;;4.00;3.00;;;;;;;;5049933;28;10062;-67
2024/02/25 12:10:56;;;;;;;;;2.50;2.50;;;;;;;;5050062;28;8815;-68
2024/02/25 12:13:21;;;;;;;;;5.00;4.00;;;;;;;;5050145;28;10176;-68
2024/02/25 12:15:47;;;;;;;;;6.00;5.00;;;;;;;;5047326;28;8965;-66
2024/02/25 12:18:14;;;;;;;;;7.00;5.00;;;;;;;;5050233;28;8807;-68
2024/02/25 12:20:40;;;;;;;;;2.00;2.00;;;;;;;;5050020;28;11549;-65
2024/02/25 12:23:07;;;;;;;;;2.00;2.00;;;;;;;;5050386;28;10235;-67
2024/02/25 12:25:32;;;;;;;;;3.50;3.50;;;;;;;;5047952;28;10993;-66
2024/02/25 12:28:11;;;;;;;;;1.50;0.50;;;;;;;;5050096;28;10555;-66
2024/02/25 12:30:37;;;;;;;;;4.25;4.00;;;;;;;;5050026;28;8901;-66
2024/02/25 12:33:09;;;;;;;;;1.00;1.00;;;;;;;;5049748;28;10662;-68
2024/02/25 12:35:35;;;;;;;;;1.00;1.00;;;;;;;;5047704;28;10486;-68
2024/02/25 12:38:01;;;;;;;;;1.00;1.00;;;;;;;;5050067;28;10171;-64
2024/02/25 12:40:26;;;;;;;;;4.00;3.00;;;;;;;;5049597;28;10315;-64
2024/02/25 12:42:53;;;;;;;;;1.00;1.00;;;;;;;;5050231;28;10632;-64
2024/02/25 12:45:19;;;;;;;;;2.00;1.00;;;;;;;;5045786;28;8848;-65
2024/02/25 12:47:45;;;;;;;;;3.00;2.00;;;;;;;;5047911;28;10569;-64
2024/02/25 12:50:10;;;;;;;;;1.00;1.00;;;;;;;;5045850;28;10814;-64
2024/02/25 12:52:36;;;;;;;;;1.00;1.00;;;;;;;;5049749;28;8779;-64
2024/02/25 12:55:02;;;;;;;;;1.00;1.00;;;;;;;;5049929;28;8787;-63
2024/02/25 12:57:27;;;;;;;;;1.00;1.00;;;;;;;;5050718;28;9603;-64
2024/02/25 12:59:53;;;;;;;;;2.00;2.00;;;;;;;;5053182;28;11163;-64
2024/02/25 13:02:18;;;;;;;;;2.50;2.25;;;;;;;;5053362;28;8783;-64
2024/02/25 13:04:44;;;;;;;;;3.75;2.50;;;;;;;;5051876;28;8807;-64
2024/02/25 13:07:09;;;;;;;;;1.00;1.00;;;;;;;;5051285;28;8849;-65
2024/02/25 13:09:34;;;;;;;;;2.00;2.00;;;;;;;;5052939;28;8814;-64
2024/02/25 13:12:02;;;;;;;;;3.75;3.50;;;;;;;;5053453;28;8838;-64
2024/02/25 13:14:28;;;;;;;;;1.00;1.00;;;;;;;;5053345;28;8795;-64
2024/02/25 13:16:54;;;;;;;;;3.00;3.00;;;;;;;;5049939;28;10865;-64
2024/02/25 13:19:19;;;;;;;;;3.00;2.00;;;;;;;;5052199;28;11479;-65
2024/02/25 13:21:45;;;;;;;;;1.00;1.00;;;;;;;;5053130;28;8783;-65
2024/02/25 13:24:10;;;;;;;;;2.00;2.00;;;;;;;;5052985;28;8795;-65
2024/02/25 13:26:35;;;;;;;;;0.50;0.50;;;;;;;;5051419;28;8795;-65
2024/02/25 13:29:00;;;;;;;;;1.75;1.75;;;;;;;;5052668;28;8802;-65
2024/02/25 13:31:26;;;;;;;;;2.50;2.00;;;;;;;;5053015;28;8787;-64
2024/02/25 13:33:51;;;;;;;;;1.75;1.75;;;;;;;;5052847;28;8811;-66
2024/02/25 13:36:17;;;;;;;;;1.00;1.00;;;;;;;;5050585;28;8831;-64
2024/02/25 13:38:44;;;;;;;;;1.25;1.25;;;;;;;;5052474;28;9528;-65
2024/02/25 13:41:10;;;;;;;;;1.00;1.00;;;;;;;;5052486;28;11613;-65
2024/02/25 13:43:37;;;;;;;;;1.50;1.00;;;;;;;;5052724;28;11376;-65
2024/02/25 13:46:02;;;;;;;;;1.00;1.00;;;;;;;;5050592;28;11416;-65
2024/02/25 13:48:27;;;;;;;;;1.00;1.00;;;;;;;;5050864;28;12135;-64
2024/02/25 13:50:53;;;;;;;;;3.75;3.75;;;;;;;;5052449;28;8795;-64
2024/02/25 13:53:20;;;;;;;;;6.25;2.50;;;;;;;;5052749;28;8994;-65
2024/02/25 13:55:45;;;;;;;;;2.00;2.00;;;;;;;;5050983;28;8807;-65
2024/02/25 13:58:14;;;;;;;;;2.50;2.00;;;;;;;;5051259;28;11162;-65
2024/02/25 14:00:39;;;;;;;;;3.00;3.00;;;;;;;;5052257;28;8826;-67
2024/02/25 14:03:05;;;;;;;;;2.75;2.75;;;;;;;;5052457;28;11367;-65
2024/02/25 14:05:30;;;;;;;;;2.00;2.00;;;;;;;;5050314;28;8805;-65
2024/02/25 14:07:57;;;;;;;;;2.00;2.00;;;;;;;;5052605;28;8787;-65
2024/02/25 14:10:23;;;;;;;;;2.50;1.50;;;;;;;;5051873;28;8826;-65
2024/02/25 14:12:49;;;;;;;;;3.00;3.00;;;;;;;;5050916;28;11126;-66
2024/02/25 14:15:15;;;;;;;;;5.00;3.00;;;;;;;;5052276;28;11388;-65
2024/02/25 14:17:43;;;;;;;;;3.00;3.00;;;;;;;;5052232;28;8845;-65
2024/02/25 14:20:09;;;;;;;;;0.75;0.00;;;;;;;;5049600;28;11425;-66
2024/02/25 14:22:34;;;;;;;;;1.00;1.00;;;;;;;;5048358;28;11070;-66
2024/02/25 14:25:00;;;;;;;;;1.00;1.00;;;;;;;;5051262;28;8810;-67
2024/02/25 14:27:25;;;;;;;;;1.00;1.00;;;;;;;;5051075;28;8786;-66
2024/02/25 14:29:50;;;;;;;;;2.50;2.50;;;;;;;;5051002;28;8783;-67
2024/02/25 14:32:16;;;;;;;;;2.00;2.00;;;;;;;;5049595;28;8892;-71
2024/02/25 14:34:42;;;;;;;;;2.00;2.00;;;;;;;;5051118;28;8783;-68
2024/02/25 14:37:07;;;;;;;;;2.00;2.00;;;;;;;;5051945;28;11153;-68
2024/02/25 14:39:34;;;;;;;;;1.75;1.25;;;;;;;;5051958;28;8892;-68
2024/02/25 14:42:01;;;;;;;;;1.50;1.50;;;;;;;;5051994;28;8787;-68
2024/02/25 14:44:27;;;;;;;;;3.00;3.00;;;;;;;;5050545;28;11403;-68
2024/02/25 14:46:54;;;;;;;;;3.00;2.00;;;;;;;;5050445;28;12125;-68
2024/02/25 14:49:20;;;;;;;;;3.00;3.00;;;;;;;;5051524;28;9521;-68
2024/02/25 14:51:46;;;;;;;;;2.75;1.75;;;;;;;;5051678;28;11464;-68
2024/02/25 14:54:11;;;;;;;;;3.00;2.00;;;;;;;;5052044;28;8809;-68
2024/02/25 14:56:37;;;;;;;;;4.75;3.25;;;;;;;;5050318;28;11383;-68
2024/02/25 14:59:03;;;;;;;;;6.25;6.00;;;;;;;;5051619;28;8794;-68
2024/02/25 15:01:29;;;;;;;;;3.25;3.00;;;;;;;;5051654;28;11446;-68
2024/02/25 15:03:54;;;;;;;;;1.25;1.25;;;;;;;;5049933;28;12275;-68
2024/02/25 15:06:21;;;;;;;;;1.00;1.00;;;;;;;;5066796;28;8807;-68
2024/02/25 15:08:46;;;;;;;;;1.00;1.00;;;;;;;;5051563;28;8798;-68
2024/02/25 15:11:11;;;;;;;;;2.25;2.25;;;;;;;;5051304;28;11387;-68
2024/02/25 15:13:36;;;;;;;;;1.25;1.25;;;;;;;;5051438;28;8775;-68
2024/02/25 15:16:02;;;;;;;;;2.75;2.75;;;;;;;;5051308;28;8821;-68
2024/02/25 15:18:27;;;;;;;;;4.50;4.00;;;;;;;;5054984;22;8902;-68
2024/02/25 15:20:52;;;;;;;;;3.00;2.25;;;;;;;;5050873;28;8820;-69
2024/02/25 15:23:18;;;;;;;;;5.00;3.00;;;;;;;;5050883;28;8791;-69
2024/02/25 15:25:43;;;;;;;;;3.25;1.50;;;;;;;;5050857;28;8783;-68
2024/02/25 15:28:09;;;;;;;;;5.00;4.50;;;;;;;;5050809;28;8787;-68
2024/02/25 15:30:34;;;;;;;;;8.25;8.00;;;;;;;;5050676;28;8900;-68
2024/02/25 15:32:59;;;;;;;;;7.00;6.00;;;;;;;;5051001;28;8877;-69
2024/02/25 15:35:25;;;;;;;;;4.00;4.00;;;;;;;;5050592;28;8823;-69
2024/02/25 15:37:51;;;;;;;;;1.25;1.25;;;;;;;;5050421;28;8776;-70
2024/02/25 15:40:16;;;;;;;;;2.00;2.00;;;;;;;;5049105;28;8816;-71
2024/02/25 15:42:42;;;;;;;;;2.00;2.00;;;;;;;;5050517;28;8776;-72
2024/02/25 15:45:09;;;;;;;;;2.00;2.00;;;;;;;;5032815;28;8791;-73
2024/02/25 15:47:36;;;;;;;;;3.00;2.00;;;;;;;;5050293;28;11369;-72
2024/02/25 15:50:01;;;;;;;;;4.00;3.00;;;;;;;;5050150;28;11396;-74
2024/02/25 15:52:27;;;;;;;;;4.00;3.00;;;;;;;;5050247;28;11149;-71
2024/02/25 15:54:52;;;;;;;;;0.25;0.25;;;;;;;;5050463;28;8873;-70
2024/02/25 15:57:19;;;;;;;;;4.00;4.00;;;;;;;;5050216;28;8879;-72
2024/02/25 15:59:44;;;;;;;;;2.75;2.00;;;;;;;;5050246;28;8933;-72
2024/02/25 16:02:10;;;;;;;;;3.00;2.50;;;;;;;;5050006;28;11000;-71
2024/02/25 16:04:36;;;;;;;;;1.75;1.25;;;;;;;;5050138;28;8849;-72
2024/02/25 16:07:03;;;;;;;;;2.00;1.00;;;;;;;;5050240;28;8788;-72
2024/02/25 16:09:30;;;;;;;;;9.50;9.50;;;;;;;;5050313;28;8800;-68
2024/02/25 16:11:55;;;;;;;;;11.50;8.00;;;;;;;;5050163;28;11317;-69
2024/02/25 16:14:20;;;;;;;;;1.00;1.00;;;;;;;;5049978;28;11356;-69
2024/02/25 16:16:46;;;;;;;;;12.25;12.25;;;;;;;;5049894;28;8870;-70
2024/02/25 16:19:12;;;;;;;;;10.50;8.25;;;;;;;;5049772;28;8799;-68
2024/02/25 16:21:37;;;;;;;;;10.25;7.50;;;;;;;;5049989;28;8780;-69
2024/02/25 16:24:03;;;;;;;;;11.00;10.00;;;;;;;;5049918;28;8776;-70
2024/02/25 16:26:28;;;;;;;;;6.25;6.25;;;;;;;;5049850;28;8800;-70
2024/02/25 16:28:55;;;;;;;;;1.00;1.00;;;;;;;;5050005;28;8796;-69
2024/02/25 16:31:21;;;;;;;;;1.25;1.00;;;;;;;;5051116;28;8784;-70
2024/02/25 16:33:46;;;;;;;;;1.00;1.00;;;;;;;;5053666;28;11686;-69
2024/02/25 16:36:17;;;;;;;;;2.00;1.00;;;;;;;;5053871;28;8818;-65
2024/02/25 16:38:43;;;;;;;;;1.00;1.00;;;;;;;;5052490;28;8800;-68
2024/02/25 16:41:16;;;;;;;;;1.00;1.00;;;;;;;;5052214;28;11089;-73
2024/02/25 16:43:43;;;;;;;;;2.00;1.00;;;;;;;;5053554;28;8861;-71
2024/02/25 16:46:08;;;;;;;;;1.00;1.00;;;;;;;;5053547;28;11324;-74
2024/02/25 16:48:33;;;;;;;;;1.00;1.00;;;;;;;;5052012;28;11238;-70
2024/02/25 16:50:59;;;;;;;;;1.50;1.00;;;;;;;;5053480;28;8804;-71
2024/02/25 16:53:24;;;;;;;;;1.75;1.50;;;;;;;;5052212;28;8820;-72
2024/02/25 16:55:49;;;;;;;;;1.00;1.00;;;;;;;;5053288;28;8780;-72
2024/02/25 16:58:14;;;;;;;;;2.50;2.50;;;;;;;;5039203;28;8801;-74
2024/02/25 17:00:40;;;;;;;;;1.75;1.75;;;;;;;;5033903;28;8849;-71
2024/02/25 17:03:05;;;;;;;;;1.00;1.00;;;;;;;;5032176;28;8824;-69
2024/02/25 17:05:30;;;;;;;;;5.50;3.00;;;;;;;;5023678;28;10386;-74
2024/02/25 17:07:56;;;;;;;;;3.00;3.00;;;;;;;;5009311;28;9975;-75
2024/02/25 17:10:22;;;;;;;;;2.00;2.00;;;;;;;;5011567;28;9921;-74
2024/02/25 17:12:49;;;;;;;;;5.00;2.00;;;;;;;;5011806;28;9583;-73
2024/02/25 17:15:15;;;;;;;;;3.00;3.00;;;;;;;;4991504;28;11467;-74
2024/02/25 17:17:42;;;;;;;;;3.50;3.50;;;;;;;;5010937;28;11469;-73
2024/02/25 17:20:10;;;;;;;;;2.00;2.00;;;;;;;;5010675;28;8828;-73
2024/02/25 17:22:36;;;;;;;;;5.00;2.00;;;;;;;;5011685;28;11459;-72
2024/02/25 17:25:01;;;;;;;;;4.50;2.50;;;;;;;;4993104;28;11528;-72
2024/02/25 17:27:27;;;;;;;;;5.75;5.75;;;;;;;;5012232;28;8789;-71
2024/02/25 17:29:52;;;;;;;;;3.00;3.00;;;;;;;;5012520;28;8914;-70
2024/02/25 17:32:18;;;;;;;;;14.25;12.00;;;;;;;;4994871;28;8813;-72
2024/02/25 17:34:43;;;;;;;;;19.00;14.25;;;;;;;;5011927;28;8932;-69
2024/02/25 17:37:11;;;;;;;;;8.25;7.50;;;;;;;;4991346;28;8853;-69
2024/02/25 17:39:36;;;;;;;;;4.00;2.00;;;;;;;;5013052;28;8841;-71
2024/02/25 17:42:02;;;;;;;;;3.00;3.00;;;;;;;;4994865;28;12456;-70
2024/02/25 17:44:29;;;;;;;;;2.00;2.00;;;;;;;;5013090;28;8903;-73
2024/02/25 17:46:57;;;;;;;;;3.00;2.00;;;;;;;;5010795;28;8816;-73
2024/02/25 17:49:25;;;;;;;;;3.00;3.00;;;;;;;;5012552;28;11665;-71
2024/02/25 17:51:53;;;;;;;;;3.00;2.00;;;;;;;;5012094;28;11622;-71
2024/02/25 17:54:18;;;;;;;;;3.50;2.00;;;;;;;;5011724;28;11517;-69
2024/02/25 17:56:43;;;;;;;;;2.00;2.00;;;;;;;;5009308;28;11521;-72
2024/02/25 17:59:11;;;;;;;;;2.00;2.00;;;;;;;;4994835;28;9609;-72
2024/02/25 18:01:37;;;;;;;;;5.75;5.75;;;;;;;;5012717;28;8820;-72
2024/02/25 18:04:02;;;;;;;;;3.50;2.50;;;;;;;;4994710;28;11515;-71
2024/02/25 18:06:35;;;;;;;;;10.00;6.00;;;;;;;;5010135;28;9551;-73
2024/02/25 18:09:00;;;;;;;;;9.25;6.75;;;;;;;;4994805;28;8809;-73
2024/02/25 18:11:26;;;;;;;;;10.00;7.00;;;;;;;;5012329;28;11547;-72
2024/02/25 18:13:51;;;;;;;;;10.25;9.75;;;;;;;;5012094;28;8790;-73
2024/02/25 18:16:16;;;;;;;;;14.00;12.00;;;;;;;;5010125;28;8910;-69
2024/02/25 18:18:42;;;;;;;;;12.75;6.50;;;;;;;;5011893;28;8845;-71
2024/02/25 18:21:10;;;;;;;;;6.00;4.00;;;;;;;;5012051;28;8817;-69
2024/02/25 18:23:35;;;;;;;;;6.00;6.00;;;;;;;;5007349;28;8971;-72
2024/02/25 18:26:01;;;;;;;;;6.00;6.00;;;;;;;;5008323;28;11679;-74
2024/02/25 18:28:26;;;;;;;;;6.75;5.25;;;;;;;;5010293;28;8829;-72
2024/02/25 18:30:51;;;;;;;;;8.50;8.50;;;;;;;;5011283;28;8848;-72
2024/02/25 18:33:19;;;;;;;;;7.00;6.00;;;;;;;;5012148;28;8809;-69
2024/02/25 18:35:45;;;;;;;;;5.25;5.25;;;;;;;;4994435;28;8849;-69
2024/02/25 18:38:10;;;;;;;;;6.00;5.75;;;;;;;;5011211;28;12371;-70
2024/02/25 18:40:35;;;;;;;;;5.00;2.50;;;;;;;;5009866;28;8884;-72
2024/02/25 18:43:01;;;;;;;;;5.00;5.00;;;;;;;;5011758;28;8823;-69
2024/02/25 18:45:26;;;;;;;;;3.50;3.50;;;;;;;;5011602;28;8828;-70
2024/02/25 18:47:54;;;;;;;;;5.00;5.00;;;;;;;;5010089;28;8844;-73
2024/02/25 18:50:20;;;;;;;;;3.00;3.00;;;;;;;;5009783;28;8821;-74
2024/02/25 18:52:47;;;;;;;;;3.00;3.00;;;;;;;;5011659;28;11524;-74
2024/02/25 18:55:13;;;;;;;;;4.50;4.50;;;;;;;;5009614;28;8833;-71
2024/02/25 18:57:38;;;;;;;;;5.50;4.00;;;;;;;;5010726;28;11529;-72
2024/02/25 19:00:04;;;;;;;;;4.00;3.50;;;;;;;;5009178;28;8946;-76
2024/02/25 19:02:29;;;;;;;;;4.50;4.50;;;;;;;;5011443;28;8842;-74
2024/02/25 19:04:54;;;;;;;;;6.75;5.00;;;;;;;;5011265;28;8852;-76
2024/02/25 19:07:20;;;;;;;;;5.50;5.50;;;;;;;;5010436;28;8801;-77
2024/02/25 19:09:45;;;;;;;;;6.25;6.00;;;;;;;;5008061;28;8917;-76
2024/02/25 19:12:11;;;;;;;;;7.50;6.25;;;;;;;;4993279;28;8805;-77
2024/02/25 19:14:42;;;;;;;;;7.00;6.00;;;;;;;;4993626;28;8829;-70
2024/02/25 19:17:08;;;;;;;;;9.75;7.00;;;;;;;;5011025;28;11542;-73
2024/02/25 19:19:33;;;;;;;;;11.00;9.00;;;;;;;;5008480;28;11520;-74
2024/02/25 19:21:58;;;;;;;;;12.25;10.00;;;;;;;;4993044;28;8931;-70
2024/02/25 19:24:23;;;;;;;;;10.75;9.75;;;;;;;;5010420;28;8821;-69
2024/02/25 19:26:49;;;;;;;;;11.00;10.00;;;;;;;;5010343;28;8816;-68
2024/02/25 19:29:17;;;;;;;;;9.50;8.00;;;;;;;;5010535;28;8809;-69
2024/02/25 19:31:46;;;;;;;;;9.00;9.00;;;;;;;;5010366;28;8889;-71
2024/02/25 19:34:11;;;;;;;;;16.25;14.00;;;;;;;;5010228;28;11478;-67
2024/02/25 19:36:36;;;;;;;;;15.00;11.50;;;;;;;;5010589;28;11548;-72
2024/02/25 19:39:02;;;;;;;;;11.00;11.00;;;;;;;;5010557;28;9585;-71
2024/02/25 19:41:29;;;;;;;;;17.50;10.00;;;;;;;;5010326;28;8903;-70
2024/02/25 19:43:55;;;;;;;;;18.00;13.00;;;;;;;;5010513;28;8859;-71
2024/02/25 19:46:20;;;;;;;;;15.00;13.25;;;;;;;;5010474;28;11559;-71
2024/02/25 19:48:45;;;;;;;;;11.00;11.00;;;;;;;;5010411;28;8797;-70
2024/02/25 19:51:10;;;;;;;;;9.25;9.25;;;;;;;;5010224;28;8821;-71
2024/02/25 19:53:36;;;;;;;;;12.00;11.00;;;;;;;;5010371;28;8874;-71
2024/02/25 19:56:01;;;;;;;;;10.25;9.50;;;;;;;;5010021;28;8821;-71
2024/02/25 19:58:27;;;;;;;;;10.00;10.00;;;;;;;;5009452;28;8923;-71
2024/02/25 20:00:58;;;;;;;;;14.75;12.25;;;;;;;;5010329;28;8863;-71
2024/02/25 20:03:23;;;;;;;;;18.25;16.50;;;;;;;;5008491;28;8944;-70
2024/02/25 20:05:50;;;;;;;;;13.75;10.75;;;;;;;;5009828;28;11683;-71
2024/02/25 20:08:16;;;;;;;;;8.50;7.00;;;;;;;;5010070;28;8781;-71
2024/02/25 20:10:41;;;;;;;;;9.25;8.50;;;;;;;;5008572;28;11512;-71
2024/02/25 20:13:07;;;;;;;;;12.50;10.00;;;;;;;;5010289;28;8793;-68
2024/02/25 20:15:33;;;;;;;;;10.75;10.75;;;;;;;;5010028;28;8879;-73
2024/02/25 20:17:59;;;;;;;;;9.00;9.00;;;;;;;;5014475;23;8885;-68
2024/02/25 20:20:25;;;;;;;;;13.25;13.25;;;;;;;;4969821;28;12073;-68
2024/02/25 20:22:50;;;;;;;;;12.00;10.00;;;;;;;;4970682;28;8801;-67
2024/02/25 20:25:16;;;;;;;;;9.00;9.00;;;;;;;;4985741;28;11576;-68
2024/02/25 20:27:43;;;;;;;;;14.00;14.00;;;;;;;;4984410;28;8825;-67
2024/02/25 20:30:09;;;;;;;;;12.75;12.00;;;;;;;;4969586;28;8817;-67
2024/02/25 20:32:34;;;;;;;;;16.25;16.25;;;;;;;;4969454;28;11637;-68
2024/02/25 20:34:59;;;;;;;;;14.50;14.50;;;;;;;;4967980;28;8968;-67
2024/02/25 20:37:25;;;;;;;;;22.25;17.00;;;;;;;;4969529;28;8805;-67
2024/02/25 20:39:50;;;;;;;;;18.75;17.25;;;;;;;;4969515;28;8857;-67
2024/02/25 20:42:15;;;;;;;;;18.75;15.50;;;;;;;;4985112;28;8932;-67
2024/02/25 20:44:40;;;;;;;;;18.75;18.00;;;;;;;;4971228;28;8797;-67
2024/02/25 20:47:06;;;;;;;;;22.75;19.00;;;;;;;;4971506;28;8887;-67
2024/02/25 20:49:31;;;;;;;;;20.50;18.00;;;;;;;;4971669;28;8833;-67
2024/02/25 20:51:57;;;;;;;;;20.75;17.50;;;;;;;;4970789;28;8805;-68
2024/02/25 20:54:22;;;;;;;;;23.00;21.75;;;;;;;;4971294;28;8813;-67
2024/02/25 20:56:51;;;;;;;;;21.50;19.50;;;;;;;;4970364;28;8940;-67
2024/02/25 20:59:16;;;;;;;;;22.50;18.75;;;;;;;;4970603;28;8802;-67
2024/02/25 21:01:42;;;;;;;;;21.50;21.00;;;;;;;;4969267;28;11616;-67
2024/02/25 21:04:07;;;;;;;;;24.00;21.00;;;;;;;;4967946;28;8840;-72
2024/02/25 21:06:33;;;;;;;;;18.50;18.50;;;;;;;;4970207;28;11672;-66
2024/02/25 21:08:58;;;;;;;;;22.25;21.50;;;;;;;;4970416;28;8846;-66
2024/02/25 21:11:23;;;;;;;;;24.00;20.50;;;;;;;;4969012;28;8854;-66
2024/02/25 21:13:49;;;;;;;;;21.00;19.00;;;;;;;;4970552;28;8836;-66
2024/02/25 21:16:14;;;;;;;;;19.75;19.00;;;;;;;;4969016;28;8837;-67
2024/02/25 21:18:40;;;;;;;;;22.25;19.50;;;;;;;;4973227;28;8979;-67
2024/02/25 21:21:05;;;;;;;;;20.75;16.75;;;;;;;;4973885;28;8825;-66
2024/02/25 21:23:31;;;;;;;;;21.75;21.50;;;;;;;;4972354;28;8829;-67
2024/02/25 21:25:56;;;;;;;;;19.50;17.50;;;;;;;;4969633;28;8816;-66
2024/02/25 21:28:22;;;;;;;;;19.00;19.00;;;;;;;;4973711;28;8805;-66
2024/02/25 21:30:47;;;;;;;;;18.75;17.00;;;;;;;;4973718;28;8797;-66
2024/02/25 21:33:13;;;;;;;;;20.00;18.75;;;;;;;;4973547;28;8821;-67
2024/02/25 21:35:38;;;;;;;;;20.50;18.25;;;;;;;;4972514;28;8829;-66
2024/02/25 21:38:04;;;;;;;;;18.50;18.50;;;;;;;;4973947;28;8829;-66
2024/02/25 21:40:29;;;;;;;;;20.50;20.00;;;;;;;;4973832;28;8872;-66
2024/02/25 21:42:56;;;;;;;;;19.75;18.00;;;;;;;;4974175;28;8960;-67
2024/02/25 21:45:21;;;;;;;;;17.00;14.75;;;;;;;;4972837;28;8817;-67
2024/02/25 21:47:48;;;;;;;;;19.50;18.50;;;;;;;;4972603;28;11569;-67
2024/02/25 21:50:13;;;;;;;;;17.50;15.25;;;;;;;;4972668;28;8809;-67
2024/02/25 21:52:38;;;;;;;;;22.75;19.50;;;;;;;;4973489;28;11598;-67
2024/02/25 21:55:04;;;;;;;;;26.25;22.00;;;;;;;;4973483;28;8801;-67
2024/02/25 21:57:32;;;;;;;;;25.75;23.75;;;;;;;;4974067;28;8895;-67
2024/02/25 21:59:57;;;;;;;;;15.25;15.25;;;;;;;;4973777;28;8849;-67
2024/02/25 22:02:22;;;;;;;;;20.00;20.00;;;;;;;;4973772;28;11557;-67
2024/02/25 22:04:47;;;;;;;;;22.50;17.50;;;;;;;;4973860;28;8801;-67
2024/02/25 22:07:13;;;;;;;;;20.00;17.50;;;;;;;;4972284;28;8802;-67
2024/02/25 22:09:38;;;;;;;;;17.50;17.50;;;;;;;;4972496;28;9598;-67
2024/02/25 22:12:04;;;;;;;;;23.00;21.25;;;;;;;;4973533;28;8805;-67
2024/02/25 22:14:29;;;;;;;;;19.00;18.00;;;;;;;;4973614;28;8943;-67
2024/02/25 22:16:55;;;;;;;;;22.50;18.00;;;;;;;;4973358;28;8860;-67
2024/02/25 22:19:21;;;;;;;;;22.50;19.50;;;;;;;;4971792;28;8849;-67
2024/02/25 22:21:46;;;;;;;;;21.00;17.75;;;;;;;;4973030;28;11602;-67
2024/02/25 22:24:11;;;;;;;;;18.75;18.75;;;;;;;;4971962;28;8903;-67
2024/02/25 22:26:40;;;;;;;;;21.75;18.00;;;;;;;;4971708;28;8921;-67
2024/02/25 22:29:05;;;;;;;;;18.75;16.00;;;;;;;;4973323;28;8825;-67
2024/02/25 22:31:31;;;;;;;;;15.25;15.25;;;;;;;;4987893;28;11559;-68
2024/02/25 22:33:56;;;;;;;;;16.50;16.50;;;;;;;;4973359;28;8851;-69
2024/02/25 22:36:22;;;;;;;;;14.50;14.50;;;;;;;;4973359;28;9587;-69
2024/02/25 22:38:47;;;;;;;;;15.25;14.00;;;;;;;;4973189;28;9574;-69
2024/02/25 22:41:12;;;;;;;;;16.75;15.25;;;;;;;;4973071;28;8825;-71
2024/02/25 22:43:37;;;;;;;;;19.00;16.00;;;;;;;;4973189;28;8847;-71
2024/02/25 22:46:03;;;;;;;;;14.25;14.25;;;;;;;;4987971;28;8813;-69